sensor_id;sensor_type;location;lat;lon;timestamp;temperature;humidity
75738;DHT22;64356;45.638;13.764;2023-08-30T00:01:50;27.20;59.60
75738;DHT22;64356;45.638;13.764;2023-08-30T00:04:15;27.20;59.40
75738;DHT22;64356;45.638;13.764;2023-08-30T00:06:41;27.20;59.20
75738;DHT22;64356;45.638;13.764;2023-08-30T00:09:07;27.20;59.20
75738;DHT22;64356;45.638;13.764;2023-08-30T00:11:34;27.20;59.40
75738;DHT22;64356;45.638;13.764;2023-08-30T00:14:04;27.20;59.30
75738;DHT22;64356;45.638;13.764;2023-08-30T00:16:34;27.20;59.60
75738;DHT22;64356;45.638;13.764;2023-08-30T00:19:00;27.20;59.50
75738;DHT22;64356;45.638;13.764;2023-08-30T00:21:26;27.20;59.50
75738;DHT22;64356;45.638;13.764;2023-08-30T00:23:52;27.20;59.30
75738;DHT22;64356;45.638;13.764;2023-08-30T00:26:18;27.20;59.40
75738;DHT22;64356;45.638;13.764;2023-08-30T00:28:44;27.20;59.40
75738;DHT22;64356;45.638;13.764;2023-08-30T00:31:09;27.20;59.50
75738;DHT22;64356;45.638;13.764;2023-08-30T00:33:35;27.20;59.60
75738;DHT22;64356;45.638;13.764;2023-08-30T00:36:01;27.20;59.70
75738;DHT22;64356;45.638;13.764;2023-08-30T00:38:27;27.20;59.70
75738;DHT22;64356;45.638;13.764;2023-08-30T00:40:53;27.20;59.60
75738;DHT22;64356;45.638;13.764;2023-08-30T00:43:20;27.20;59.50
75738;DHT22;64356;45.638;13.764;2023-08-30T00:45:47;27.20;59.50
75738;DHT22;64356;45.638;13.764;2023-08-30T00:48:14;27.20;59.60
75738;DHT22;64356;45.638;13.764;2023-08-30T00:50:41;27.20;59.50
75738;DHT22;64356;45.638;13.764;2023-08-30T00:53:07;27.20;59.40
75738;DHT22;64356;45.638;13.764;2023-08-30T00:55:34;27.20;59.60
75738;DHT22;64356;45.638;13.764;2023-08-30T00:58:01;27.20;59.60
75738;DHT22;64356;45.638;13.764;2023-08-30T01:00:30;27.20;59.30
75738;DHT22;64356;45.638;13.764;2023-08-30T01:02:57;27.20;59.60
75738;DHT22;64356;45.638;13.764;2023-08-30T01:05:23;27.20;59.30
75738;DHT22;64356;45.638;13.764;2023-08-30T01:07:50;27.20;59.40
75738;DHT22;64356;45.638;13.764;2023-08-30T01:10:17;27.20;59.30
75738;DHT22;64356;45.638;13.764;2023-08-30T01:12:49;27.10;59.20
75738;DHT22;64356;45.638;13.764;2023-08-30T01:15:19;27.20;59.40
75738;DHT22;64356;45.638;13.764;2023-08-30T01:17:48;27.20;59.40
75738;DHT22;64356;45.638;13.764;2023-08-30T01:20:16;27.10;59.20
75738;DHT22;64356;45.638;13.764;2023-08-30T01:23:00;27.10;59.30
75738;DHT22;64356;45.638;13.764;2023-08-30T01:25:48;27.10;59.30
75738;DHT22;64356;45.638;13.764;2023-08-30T01:28:19;27.20;59.30
75738;DHT22;64356;45.638;13.764;2023-08-30T01:30:47;27.10;59.30
75738;DHT22;64356;45.638;13.764;2023-08-30T01:33:14;27.10;59.10
75738;DHT22;64356;45.638;13.764;2023-08-30T01:35:41;27.10;59.10
75738;DHT22;64356;45.638;13.764;2023-08-30T01:38:07;27.10;59.00
75738;DHT22;64356;45.638;13.764;2023-08-30T01:40:37;27.10;58.90
75738;DHT22;64356;45.638;13.764;2023-08-30T01:43:05;27.20;59.10
75738;DHT22;64356;45.638;13.764;2023-08-30T01:45:43;27.20;59.00
75738;DHT22;64356;45.638;13.764;2023-08-30T01:48:11;27.10;58.90
75738;DHT22;64356;45.638;13.764;2023-08-30T01:50:39;27.20;58.90
75738;DHT22;64356;45.638;13.764;2023-08-30T01:53:05;27.10;59.00
75738;DHT22;64356;45.638;13.764;2023-08-30T01:55:33;27.10;59.20
75738;DHT22;64356;45.638;13.764;2023-08-30T01:57:59;27.10;59.10
75738;DHT22;64356;45.638;13.764;2023-08-30T02:00:25;27.10;59.10
75738;DHT22;64356;45.638;13.764;2023-08-30T02:02:50;27.10;59.20
75738;DHT22;64356;45.638;13.764;2023-08-30T02:05:16;27.10;58.90
75738;DHT22;64356;45.638;13.764;2023-08-30T02:10:28;27.10;58.90
75738;DHT22;64356;45.638;13.764;2023-08-30T02:12:57;27.10;58.70
75738;DHT22;64356;45.638;13.764;2023-08-30T02:15:25;27.10;58.70
75738;DHT22;64356;45.638;13.764;2023-08-30T02:17:52;27.20;58.70
75738;DHT22;64356;45.638;13.764;2023-08-30T02:20:19;27.10;58.60
75738;DHT22;64356;45.638;13.764;2023-08-30T02:22:45;27.10;58.50
75738;DHT22;64356;45.638;13.764;2023-08-30T02:25:10;27.20;58.60
75738;DHT22;64356;45.638;13.764;2023-08-30T02:27:36;27.10;58.50
75738;DHT22;64356;45.638;13.764;2023-08-30T02:30:02;27.20;58.60
75738;DHT22;64356;45.638;13.764;2023-08-30T02:32:28;27.20;58.60
75738;DHT22;64356;45.638;13.764;2023-08-30T02:34:56;27.10;58.50
75738;DHT22;64356;45.638;13.764;2023-08-30T02:37:22;27.10;58.50
75738;DHT22;64356;45.638;13.764;2023-08-30T02:39:48;27.20;58.60
75738;DHT22;64356;45.638;13.764;2023-08-30T02:42:13;27.10;58.50
75738;DHT22;64356;45.638;13.764;2023-08-30T02:44:39;27.20;58.50
75738;DHT22;64356;45.638;13.764;2023-08-30T02:47:05;27.10;58.40
75738;DHT22;64356;45.638;13.764;2023-08-30T02:49:30;27.10;58.40
75738;DHT22;64356;45.638;13.764;2023-08-30T02:51:56;27.10;58.40
75738;DHT22;64356;45.638;13.764;2023-08-30T02:54:22;27.10;58.40
75738;DHT22;64356;45.638;13.764;2023-08-30T02:56:49;27.10;58.70
75738;DHT22;64356;45.638;13.764;2023-08-30T02:59:15;27.10;58.60
75738;DHT22;64356;45.638;13.764;2023-08-30T03:01:41;27.10;58.60
75738;DHT22;64356;45.638;13.764;2023-08-30T03:04:07;27.10;58.60
75738;DHT22;64356;45.638;13.764;2023-08-30T03:06:34;27.10;58.50
75738;DHT22;64356;45.638;13.764;2023-08-30T03:09:00;27.10;58.30
75738;DHT22;64356;45.638;13.764;2023-08-30T03:11:26;27.10;58.30
75738;DHT22;64356;45.638;13.764;2023-08-30T03:13:53;27.10;58.20
75738;DHT22;64356;45.638;13.764;2023-08-30T03:16:19;27.10;58.30
75738;DHT22;64356;45.638;13.764;2023-08-30T03:18:45;27.10;58.40
75738;DHT22;64356;45.638;13.764;2023-08-30T03:21:11;27.10;58.60
75738;DHT22;64356;45.638;13.764;2023-08-30T03:23:38;27.20;58.60
75738;DHT22;64356;45.638;13.764;2023-08-30T03:26:14;27.10;58.50
75738;DHT22;64356;45.638;13.764;2023-08-30T03:28:41;27.10;58.50
75738;DHT22;64356;45.638;13.764;2023-08-30T03:31:19;27.10;58.40
75738;DHT22;64356;45.638;13.764;2023-08-30T03:33:46;27.10;58.40
75738;DHT22;64356;45.638;13.764;2023-08-30T03:36:14;27.10;58.50
75738;DHT22;64356;45.638;13.764;2023-08-30T03:38:40;27.10;58.40
75738;DHT22;64356;45.638;13.764;2023-08-30T03:41:06;27.10;57.70
75738;DHT22;64356;45.638;13.764;2023-08-30T03:43:32;27.10;57.50
75738;DHT22;64356;45.638;13.764;2023-08-30T03:46:02;27.10;57.30
75738;DHT22;64356;45.638;13.764;2023-08-30T03:48:31;27.10;57.30
75738;DHT22;64356;45.638;13.764;2023-08-30T03:50:57;27.20;57.70
75738;DHT22;64356;45.638;13.764;2023-08-30T03:53:23;27.20;57.60
75738;DHT22;64356;45.638;13.764;2023-08-30T03:55:50;27.10;57.70
75738;DHT22;64356;45.638;13.764;2023-08-30T03:58:16;27.10;57.90
75738;DHT22;64356;45.638;13.764;2023-08-30T04:00:42;27.10;57.90
75738;DHT22;64356;45.638;13.764;2023-08-30T04:03:08;27.10;57.80
75738;DHT22;64356;45.638;13.764;2023-08-30T04:05:35;27.10;58.20
75738;DHT22;64356;45.638;13.764;2023-08-30T04:08:02;27.10;58.20
75738;DHT22;64356;45.638;13.764;2023-08-30T04:10:28;27.10;58.20
75738;DHT22;64356;45.638;13.764;2023-08-30T04:12:54;27.10;58.20
75738;DHT22;64356;45.638;13.764;2023-08-30T04:15:19;27.10;58.20
75738;DHT22;64356;45.638;13.764;2023-08-30T04:17:45;27.10;58.20
75738;DHT22;64356;45.638;13.764;2023-08-30T04:20:11;27.10;58.20
75738;DHT22;64356;45.638;13.764;2023-08-30T04:22:37;27.10;58.10
75738;DHT22;64356;45.638;13.764;2023-08-30T04:25:04;27.10;58.20
75738;DHT22;64356;45.638;13.764;2023-08-30T04:27:30;27.10;58.20
75738;DHT22;64356;45.638;13.764;2023-08-30T04:29:55;27.10;58.20
75738;DHT22;64356;45.638;13.764;2023-08-30T04:32:21;27.10;57.90
75738;DHT22;64356;45.638;13.764;2023-08-30T04:34:47;27.10;57.80
75738;DHT22;64356;45.638;13.764;2023-08-30T04:37:12;27.10;57.80
75738;DHT22;64356;45.638;13.764;2023-08-30T04:39:40;27.10;58.30
75738;DHT22;64356;45.638;13.764;2023-08-30T04:42:05;27.10;57.90
75738;DHT22;64356;45.638;13.764;2023-08-30T04:44:31;27.10;57.70
75738;DHT22;64356;45.638;13.764;2023-08-30T04:46:58;27.10;57.50
75738;DHT22;64356;45.638;13.764;2023-08-30T04:49:23;27.10;57.50
75738;DHT22;64356;45.638;13.764;2023-08-30T04:51:51;27.10;57.50
75738;DHT22;64356;45.638;13.764;2023-08-30T04:54:16;27.10;58.00
75738;DHT22;64356;45.638;13.764;2023-08-30T04:56:42;27.10;57.60
75738;DHT22;64356;45.638;13.764;2023-08-30T04:59:08;27.10;57.40
75738;DHT22;64356;45.638;13.764;2023-08-30T05:01:34;27.10;57.50
75738;DHT22;64356;45.638;13.764;2023-08-30T05:03:59;27.10;56.70
75738;DHT22;64356;45.638;13.764;2023-08-30T05:06:26;27.10;56.90
75738;DHT22;64356;45.638;13.764;2023-08-30T05:08:52;27.10;57.00
75738;DHT22;64356;45.638;13.764;2023-08-30T05:11:17;27.10;57.20
75738;DHT22;64356;45.638;13.764;2023-08-30T05:13:43;27.10;57.30
75738;DHT22;64356;45.638;13.764;2023-08-30T05:16:09;27.10;56.70
75738;DHT22;64356;45.638;13.764;2023-08-30T05:18:34;27.10;56.90
75738;DHT22;64356;45.638;13.764;2023-08-30T05:21:00;27.10;56.40
75738;DHT22;64356;45.638;13.764;2023-08-30T05:23:29;27.10;56.40
75738;DHT22;64356;45.638;13.764;2023-08-30T05:25:54;27.10;56.90
75738;DHT22;64356;45.638;13.764;2023-08-30T05:28:20;27.10;54.60
75738;DHT22;64356;45.638;13.764;2023-08-30T05:30:46;26.90;51.70
75738;DHT22;64356;45.638;13.764;2023-08-30T05:33:11;26.70;50.20
75738;DHT22;64356;45.638;13.764;2023-08-30T05:35:37;26.40;49.90
75738;DHT22;64356;45.638;13.764;2023-08-30T05:38:03;26.30;50.20
75738;DHT22;64356;45.638;13.764;2023-08-30T05:40:29;26.10;49.90
75738;DHT22;64356;45.638;13.764;2023-08-30T05:42:55;25.90;49.90
75738;DHT22;64356;45.638;13.764;2023-08-30T05:45:21;25.80;49.50
75738;DHT22;64356;45.638;13.764;2023-08-30T05:47:46;25.60;49.90
75738;DHT22;64356;45.638;13.764;2023-08-30T05:50:12;25.50;49.70
75738;DHT22;64356;45.638;13.764;2023-08-30T05:52:37;25.40;49.60
75738;DHT22;64356;45.638;13.764;2023-08-30T05:55:07;25.20;50.90
75738;DHT22;64356;45.638;13.764;2023-08-30T05:57:34;25.00;51.40
75738;DHT22;64356;45.638;13.764;2023-08-30T06:00:02;24.90;52.10
75738;DHT22;64356;45.638;13.764;2023-08-30T06:02:30;24.80;52.60
75738;DHT22;64356;45.638;13.764;2023-08-30T06:04:55;24.70;53.00
75738;DHT22;64356;45.638;13.764;2023-08-30T06:07:21;24.60;53.00
75738;DHT22;64356;45.638;13.764;2023-08-30T06:09:47;24.50;53.00
75738;DHT22;64356;45.638;13.764;2023-08-30T06:12:13;24.40;53.70
75738;DHT22;64356;45.638;13.764;2023-08-30T06:14:38;24.30;54.30
75738;DHT22;64356;45.638;13.764;2023-08-30T06:17:04;24.20;55.00
75738;DHT22;64356;45.638;13.764;2023-08-30T06:19:30;24.20;54.60
75738;DHT22;64356;45.638;13.764;2023-08-30T06:21:55;24.20;54.00
75738;DHT22;64356;45.638;13.764;2023-08-30T06:24:22;24.10;55.50
75738;DHT22;64356;45.638;13.764;2023-08-30T06:26:47;24.00;55.10
75738;DHT22;64356;45.638;13.764;2023-08-30T06:29:13;24.00;55.30
75738;DHT22;64356;45.638;13.764;2023-08-30T06:31:39;23.90;56.10
75738;DHT22;64356;45.638;13.764;2023-08-30T06:34:07;23.80;57.00
75738;DHT22;64356;45.638;13.764;2023-08-30T06:36:32;23.70;57.70
75738;DHT22;64356;45.638;13.764;2023-08-30T06:38:58;23.60;58.30
75738;DHT22;64356;45.638;13.764;2023-08-30T06:41:24;23.50;58.60
75738;DHT22;64356;45.638;13.764;2023-08-30T06:43:49;23.40;58.90
75738;DHT22;64356;45.638;13.764;2023-08-30T06:46:15;23.30;59.70
75738;DHT22;64356;45.638;13.764;2023-08-30T06:48:40;23.20;60.60
75738;DHT22;64356;45.638;13.764;2023-08-30T06:51:06;23.30;60.70
75738;DHT22;64356;45.638;13.764;2023-08-30T06:53:32;23.20;60.60
75738;DHT22;64356;45.638;13.764;2023-08-30T06:56:01;23.20;61.20
75738;DHT22;64356;45.638;13.764;2023-08-30T06:58:27;23.10;61.10
75738;DHT22;64356;45.638;13.764;2023-08-30T07:00:53;23.10;60.90
75738;DHT22;64356;45.638;13.764;2023-08-30T07:03:19;23.00;61.30
75738;DHT22;64356;45.638;13.764;2023-08-30T07:05:45;23.00;61.90
75738;DHT22;64356;45.638;13.764;2023-08-30T07:08:14;23.00;61.60
75738;DHT22;64356;45.638;13.764;2023-08-30T07:10:40;22.90;61.40
75738;DHT22;64356;45.638;13.764;2023-08-30T07:13:05;22.90;61.60
75738;DHT22;64356;45.638;13.764;2023-08-30T07:15:39;22.90;61.50
75738;DHT22;64356;45.638;13.764;2023-08-30T07:18:05;22.80;61.10
75738;DHT22;64356;45.638;13.764;2023-08-30T07:20:31;22.80;61.80
75738;DHT22;64356;45.638;13.764;2023-08-30T07:22:57;22.70;62.40
75738;DHT22;64356;45.638;13.764;2023-08-30T07:25:23;22.70;62.10
75738;DHT22;64356;45.638;13.764;2023-08-30T07:27:49;22.60;62.60
75738;DHT22;64356;45.638;13.764;2023-08-30T07:30:15;22.70;62.50
75738;DHT22;64356;45.638;13.764;2023-08-30T07:32:41;22.70;62.20
75738;DHT22;64356;45.638;13.764;2023-08-30T07:35:08;22.60;61.80
75738;DHT22;64356;45.638;13.764;2023-08-30T07:37:35;22.60;61.80
75738;DHT22;64356;45.638;13.764;2023-08-30T07:40:01;22.60;61.70
75738;DHT22;64356;45.638;13.764;2023-08-30T07:42:30;22.50;61.90
75738;DHT22;64356;45.638;13.764;2023-08-30T07:44:55;22.50;62.10
75738;DHT22;64356;45.638;13.764;2023-08-30T07:47:21;22.50;62.50
75738;DHT22;64356;45.638;13.764;2023-08-30T07:49:47;22.60;62.90
75738;DHT22;64356;45.638;13.764;2023-08-30T07:52:12;22.60;62.40
75738;DHT22;64356;45.638;13.764;2023-08-30T07:54:39;22.60;62.10
75738;DHT22;64356;45.638;13.764;2023-08-30T07:57:05;22.60;62.40
75738;DHT22;64356;45.638;13.764;2023-08-30T07:59:35;22.60;62.10
75738;DHT22;64356;45.638;13.764;2023-08-30T08:02:02;22.50;63.00
75738;DHT22;64356;45.638;13.764;2023-08-30T08:04:28;22.50;63.30
75738;DHT22;64356;45.638;13.764;2023-08-30T08:06:54;22.60;62.40
75738;DHT22;64356;45.638;13.764;2023-08-30T08:09:19;22.50;62.30
75738;DHT22;64356;45.638;13.764;2023-08-30T08:11:48;22.60;62.20
75738;DHT22;64356;45.638;13.764;2023-08-30T08:14:14;22.60;62.40
75738;DHT22;64356;45.638;13.764;2023-08-30T08:16:39;22.60;62.60
75738;DHT22;64356;45.638;13.764;2023-08-30T08:19:05;22.60;62.30
75738;DHT22;64356;45.638;13.764;2023-08-30T08:21:33;22.70;62.10
75738;DHT22;64356;45.638;13.764;2023-08-30T08:23:58;22.70;61.70
75738;DHT22;64356;45.638;13.764;2023-08-30T08:26:24;22.70;61.80
75738;DHT22;64356;45.638;13.764;2023-08-30T08:28:50;22.70;62.00
75738;DHT22;64356;45.638;13.764;2023-08-30T08:31:16;22.70;61.60
75738;DHT22;64356;45.638;13.764;2023-08-30T08:33:43;22.70;61.70
75738;DHT22;64356;45.638;13.764;2023-08-30T08:36:09;22.70;62.00
75738;DHT22;64356;45.638;13.764;2023-08-30T08:38:35;22.70;61.80
75738;DHT22;64356;45.638;13.764;2023-08-30T08:41:05;22.70;61.70
75738;DHT22;64356;45.638;13.764;2023-08-30T08:43:32;22.80;61.40
75738;DHT22;64356;45.638;13.764;2023-08-30T08:46:02;22.80;61.30
75738;DHT22;64356;45.638;13.764;2023-08-30T08:48:29;22.80;61.40
75738;DHT22;64356;45.638;13.764;2023-08-30T08:50:57;22.70;61.60
75738;DHT22;64356;45.638;13.764;2023-08-30T08:53:23;22.80;61.90
75738;DHT22;64356;45.638;13.764;2023-08-30T08:55:49;22.70;61.60
75738;DHT22;64356;45.638;13.764;2023-08-30T08:58:15;22.70;61.60
75738;DHT22;64356;45.638;13.764;2023-08-30T09:00:45;22.70;62.00
75738;DHT22;64356;45.638;13.764;2023-08-30T09:03:11;22.70;62.50
75738;DHT22;64356;45.638;13.764;2023-08-30T09:05:40;22.70;62.70
75738;DHT22;64356;45.638;13.764;2023-08-30T09:08:10;22.70;62.50
75738;DHT22;64356;45.638;13.764;2023-08-30T09:10:37;22.70;62.60
75738;DHT22;64356;45.638;13.764;2023-08-30T09:13:03;22.70;62.50
75738;DHT22;64356;45.638;13.764;2023-08-30T09:15:32;22.60;62.60
75738;DHT22;64356;45.638;13.764;2023-08-30T09:17:58;22.60;62.50
75738;DHT22;64356;45.638;13.764;2023-08-30T09:20:23;22.70;62.20
75738;DHT22;64356;45.638;13.764;2023-08-30T09:22:49;22.60;62.20
75738;DHT22;64356;45.638;13.764;2023-08-30T09:25:27;22.60;62.10
75738;DHT22;64356;45.638;13.764;2023-08-30T09:28:02;22.60;61.70
75738;DHT22;64356;45.638;13.764;2023-08-30T09:30:29;22.60;61.60
75738;DHT22;64356;45.638;13.764;2023-08-30T09:33:01;22.70;62.00
75738;DHT22;64356;45.638;13.764;2023-08-30T09:35:28;22.70;62.10
75738;DHT22;64356;45.638;13.764;2023-08-30T09:37:54;22.80;61.80
75738;DHT22;64356;45.638;13.764;2023-08-30T09:40:19;22.90;61.40
75738;DHT22;64356;45.638;13.764;2023-08-30T09:42:46;22.90;61.90
75738;DHT22;64356;45.638;13.764;2023-08-30T09:45:24;23.00;61.70
75738;DHT22;64356;45.638;13.764;2023-08-30T09:47:51;23.00;61.20
75738;DHT22;64356;45.638;13.764;2023-08-30T09:50:19;23.00;61.40
75738;DHT22;64356;45.638;13.764;2023-08-30T09:52:47;23.00;61.00
75738;DHT22;64356;45.638;13.764;2023-08-30T09:55:14;23.00;60.20
75738;DHT22;64356;45.638;13.764;2023-08-30T09:57:41;23.00;60.90
75738;DHT22;64356;45.638;13.764;2023-08-30T10:00:09;23.00;60.60
75738;DHT22;64356;45.638;13.764;2023-08-30T10:02:38;23.00;60.70
75738;DHT22;64356;45.638;13.764;2023-08-30T10:05:08;23.00;60.40
75738;DHT22;64356;45.638;13.764;2023-08-30T10:07:35;23.00;60.30
75738;DHT22;64356;45.638;13.764;2023-08-30T10:10:03;23.00;60.40
75738;DHT22;64356;45.638;13.764;2023-08-30T10:12:32;23.10;60.00
75738;DHT22;64356;45.638;13.764;2023-08-30T10:14:58;23.00;60.50
75738;DHT22;64356;45.638;13.764;2023-08-30T10:17:27;23.20;60.20
75738;DHT22;64356;45.638;13.764;2023-08-30T10:19:55;23.20;59.40
75738;DHT22;64356;45.638;13.764;2023-08-30T10:22:22;23.20;59.80
75738;DHT22;64356;45.638;13.764;2023-08-30T10:24:56;23.30;59.20
75738;DHT22;64356;45.638;13.764;2023-08-30T10:27:24;23.40;59.00
75738;DHT22;64356;45.638;13.764;2023-08-30T10:29:51;23.40;59.10
75738;DHT22;64356;45.638;13.764;2023-08-30T10:32:20;23.50;59.10
75738;DHT22;64356;45.638;13.764;2023-08-30T10:34:50;23.40;59.00
75738;DHT22;64356;45.638;13.764;2023-08-30T10:37:22;23.40;58.80
75738;DHT22;64356;45.638;13.764;2023-08-30T10:39:49;23.50;58.80
75738;DHT22;64356;45.638;13.764;2023-08-30T10:42:15;23.40;58.40
75738;DHT22;64356;45.638;13.764;2023-08-30T10:44:48;23.50;58.70
75738;DHT22;64356;45.638;13.764;2023-08-30T10:47:19;23.50;58.70
75738;DHT22;64356;45.638;13.764;2023-08-30T10:49:47;23.40;58.90
75738;DHT22;64356;45.638;13.764;2023-08-30T10:52:13;23.40;58.90
75738;DHT22;64356;45.638;13.764;2023-08-30T10:54:39;23.40;58.90
75738;DHT22;64356;45.638;13.764;2023-08-30T10:57:05;23.40;58.60
75738;DHT22;64356;45.638;13.764;2023-08-30T10:59:30;23.30;58.40
75738;DHT22;64356;45.638;13.764;2023-08-30T11:01:56;23.20;58.80
75738;DHT22;64356;45.638;13.764;2023-08-30T11:04:26;23.20;58.90
75738;DHT22;64356;45.638;13.764;2023-08-30T11:06:52;23.20;59.20
75738;DHT22;64356;45.638;13.764;2023-08-30T11:09:19;23.20;58.70
75738;DHT22;64356;45.638;13.764;2023-08-30T11:11:46;23.30;58.70
75738;DHT22;64356;45.638;13.764;2023-08-30T11:14:13;23.30;58.80
75738;DHT22;64356;45.638;13.764;2023-08-30T11:16:39;23.20;58.70
75738;DHT22;64356;45.638;13.764;2023-08-30T11:19:06;23.20;58.20
75738;DHT22;64356;45.638;13.764;2023-08-30T11:21:34;23.10;58.70
75738;DHT22;64356;45.638;13.764;2023-08-30T11:24:00;23.10;58.80
75738;DHT22;64356;45.638;13.764;2023-08-30T11:26:26;23.10;58.50
75738;DHT22;64356;45.638;13.764;2023-08-30T11:28:52;23.00;58.50
75738;DHT22;64356;45.638;13.764;2023-08-30T11:31:27;23.00;58.90
75738;DHT22;64356;45.638;13.764;2023-08-30T11:33:56;23.00;58.60
75738;DHT22;64356;45.638;13.764;2023-08-30T11:36:28;23.10;58.30
75738;DHT22;64356;45.638;13.764;2023-08-30T11:38:54;23.10;57.90
75738;DHT22;64356;45.638;13.764;2023-08-30T11:41:21;23.10;58.10
75738;DHT22;64356;45.638;13.764;2023-08-30T11:43:54;23.10;58.00
75738;DHT22;64356;45.638;13.764;2023-08-30T11:46:20;23.10;58.50
75738;DHT22;64356;45.638;13.764;2023-08-30T11:48:48;23.00;58.40
75738;DHT22;64356;45.638;13.764;2023-08-30T11:51:15;23.10;58.10
75738;DHT22;64356;45.638;13.764;2023-08-30T11:53:41;23.00;57.90
75738;DHT22;64356;45.638;13.764;2023-08-30T11:56:08;23.00;58.70
75738;DHT22;64356;45.638;13.764;2023-08-30T11:58:34;23.10;59.10
75738;DHT22;64356;45.638;13.764;2023-08-30T12:01:04;23.10;59.10
75738;DHT22;64356;45.638;13.764;2023-08-30T12:03:31;23.00;59.50
75738;DHT22;64356;45.638;13.764;2023-08-30T12:05:57;23.00;59.50
75738;DHT22;64356;45.638;13.764;2023-08-30T12:08:25;22.90;59.50
75738;DHT22;64356;45.638;13.764;2023-08-30T12:10:52;22.90;59.70
75738;DHT22;64356;45.638;13.764;2023-08-30T12:13:33;22.90;59.20
75738;DHT22;64356;45.638;13.764;2023-08-30T12:15:59;23.00;59.40
75738;DHT22;64356;45.638;13.764;2023-08-30T12:18:31;23.00;59.30
75738;DHT22;64356;45.638;13.764;2023-08-30T12:21:00;22.90;59.30
75738;DHT22;64356;45.638;13.764;2023-08-30T12:23:29;22.90;59.80
75738;DHT22;64356;45.638;13.764;2023-08-30T12:26:04;22.80;60.40
75738;DHT22;64356;45.638;13.764;2023-08-30T12:28:31;22.70;60.60
75738;DHT22;64356;45.638;13.764;2023-08-30T12:30:57;22.70;61.40
75738;DHT22;64356;45.638;13.764;2023-08-30T12:33:24;22.70;62.30
75738;DHT22;64356;45.638;13.764;2023-08-30T12:35:57;22.60;62.30
75738;DHT22;64356;45.638;13.764;2023-08-30T12:38:24;22.60;62.10
75738;DHT22;64356;45.638;13.764;2023-08-30T12:40:52;22.60;62.50
75738;DHT22;64356;45.638;13.764;2023-08-30T12:43:18;22.50;62.00
75738;DHT22;64356;45.638;13.764;2023-08-30T12:45:45;22.50;62.10
75738;DHT22;64356;45.638;13.764;2023-08-30T12:48:13;22.60;61.30
75738;DHT22;64356;45.638;13.764;2023-08-30T12:50:44;22.60;61.10
75738;DHT22;64356;45.638;13.764;2023-08-30T12:53:11;22.60;61.40
75738;DHT22;64356;45.638;13.764;2023-08-30T12:55:37;22.60;61.40
75738;DHT22;64356;45.638;13.764;2023-08-30T12:58:07;22.60;61.60
75738;DHT22;64356;45.638;13.764;2023-08-30T13:00:33;22.60;61.40
75738;DHT22;64356;45.638;13.764;2023-08-30T13:02:59;22.60;61.90
75738;DHT22;64356;45.638;13.764;2023-08-30T13:05:26;22.60;61.60
75738;DHT22;64356;45.638;13.764;2023-08-30T13:07:52;22.60;61.80
75738;DHT22;64356;45.638;13.764;2023-08-30T13:10:18;22.60;62.00
75738;DHT22;64356;45.638;13.764;2023-08-30T13:12:44;22.60;62.10
75738;DHT22;64356;45.638;13.764;2023-08-30T13:15:10;22.60;62.50
75738;DHT22;64356;45.638;13.764;2023-08-30T13:17:35;22.60;62.80
75738;DHT22;64356;45.638;13.764;2023-08-30T13:20:02;22.60;63.20
75738;DHT22;64356;45.638;13.764;2023-08-30T13:22:28;22.70;63.00
75738;DHT22;64356;45.638;13.764;2023-08-30T13:24:55;22.70;63.10
75738;DHT22;64356;45.638;13.764;2023-08-30T13:27:21;22.70;63.00
75738;DHT22;64356;45.638;13.764;2023-08-30T13:29:46;22.80;62.80
75738;DHT22;64356;45.638;13.764;2023-08-30T13:32:12;22.90;62.20
75738;DHT22;64356;45.638;13.764;2023-08-30T13:34:38;22.90;61.60
75738;DHT22;64356;45.638;13.764;2023-08-30T13:37:11;23.00;61.60
75738;DHT22;64356;45.638;13.764;2023-08-30T13:39:38;23.00;61.60
75738;DHT22;64356;45.638;13.764;2023-08-30T13:42:04;23.00;61.90
75738;DHT22;64356;45.638;13.764;2023-08-30T13:44:30;23.10;62.10
75738;DHT22;64356;45.638;13.764;2023-08-30T13:46:57;23.00;62.60
75738;DHT22;64356;45.638;13.764;2023-08-30T13:49:23;23.10;62.50
75738;DHT22;64356;45.638;13.764;2023-08-30T13:51:49;23.10;62.70
75738;DHT22;64356;45.638;13.764;2023-08-30T13:54:14;23.10;62.50
75738;DHT22;64356;45.638;13.764;2023-08-30T13:56:40;23.10;62.60
75738;DHT22;64356;45.638;13.764;2023-08-30T13:59:07;23.20;62.80
75738;DHT22;64356;45.638;13.764;2023-08-30T14:01:32;23.20;62.60
75738;DHT22;64356;45.638;13.764;2023-08-30T14:03:58;23.20;62.30
75738;DHT22;64356;45.638;13.764;2023-08-30T14:06:24;23.30;62.40
75738;DHT22;64356;45.638;13.764;2023-08-30T14:08:49;23.30;62.10
75738;DHT22;64356;45.638;13.764;2023-08-30T14:11:15;23.40;61.70
75738;DHT22;64356;45.638;13.764;2023-08-30T14:13:41;23.50;62.90
75738;DHT22;64356;45.638;13.764;2023-08-30T14:16:07;23.60;63.60
75738;DHT22;64356;45.638;13.764;2023-08-30T14:18:34;23.70;64.00
75738;DHT22;64356;45.638;13.764;2023-08-30T14:21:00;23.90;63.90
75738;DHT22;64356;45.638;13.764;2023-08-30T14:23:28;24.00;63.60
75738;DHT22;64356;45.638;13.764;2023-08-30T14:25:57;24.10;63.60
75738;DHT22;64356;45.638;13.764;2023-08-30T14:28:24;24.10;63.20
75738;DHT22;64356;45.638;13.764;2023-08-30T14:30:50;24.20;63.10
75738;DHT22;64356;45.638;13.764;2023-08-30T14:33:16;24.30;62.70
75738;DHT22;64356;45.638;13.764;2023-08-30T14:35:42;24.30;62.70
75738;DHT22;64356;45.638;13.764;2023-08-30T14:38:08;24.30;62.50
75738;DHT22;64356;45.638;13.764;2023-08-30T14:40:34;24.40;62.70
75738;DHT22;64356;45.638;13.764;2023-08-30T14:43:02;24.40;62.50
75738;DHT22;64356;45.638;13.764;2023-08-30T14:45:29;24.40;62.20
75738;DHT22;64356;45.638;13.764;2023-08-30T14:47:54;24.40;62.40
75738;DHT22;64356;45.638;13.764;2023-08-30T14:50:20;24.50;62.30
75738;DHT22;64356;45.638;13.764;2023-08-30T14:52:46;24.50;62.20
75738;DHT22;64356;45.638;13.764;2023-08-30T14:55:12;24.50;62.30
75738;DHT22;64356;45.638;13.764;2023-08-30T14:57:37;24.60;62.40
75738;DHT22;64356;45.638;13.764;2023-08-30T15:00:04;24.50;62.10
75738;DHT22;64356;45.638;13.764;2023-08-30T15:02:30;24.60;62.00
75738;DHT22;64356;45.638;13.764;2023-08-30T15:04:56;24.60;62.40
75738;DHT22;64356;45.638;13.764;2023-08-30T15:07:22;24.60;61.80
75738;DHT22;64356;45.638;13.764;2023-08-30T15:09:48;24.60;61.90
75738;DHT22;64356;45.638;13.764;2023-08-30T15:12:15;24.60;61.90
75738;DHT22;64356;45.638;13.764;2023-08-30T15:14:41;24.60;61.90
75738;DHT22;64356;45.638;13.764;2023-08-30T15:17:08;24.60;61.90